createdAt,value
2019-02-26T00:00:07.645Z,83.98
2019-02-26T00:02:41.706Z,83.62
2019-02-26T00:05:09.017Z,84.05
2019-02-26T00:07:36.378Z,84.75
2019-02-26T00:10:05.299Z,84.85
2019-02-26T00:12:33.278Z,85.21
2019-02-26T00:15:02.573Z,85.38
2019-02-26T00:17:30.218Z,85.89
2019-02-26T00:19:57.559Z,85.83
2019-02-26T00:22:24.938Z,85.82
2019-02-26T00:24:52.257Z,85.37
2019-02-26T00:27:19.629Z,85.86
2019-02-26T00:29:48.742Z,84.83
2019-02-26T00:32:18.382Z,84.75
2019-02-26T00:34:45.457Z,84.75
2019-02-26T00:37:12.798Z,83.82
2019-02-26T00:39:40.157Z,84.67
2019-02-26T00:42:07.528Z,85.92
2019-02-26T00:44:37.164Z,86.66
2019-02-26T00:47:04.986Z,87.14
2019-02-26T00:49:33.359Z,87.30
2019-02-26T00:52:00.733Z,87.31
2019-02-26T00:54:29.196Z,86.77
2019-02-26T00:57:01.087Z,86.90
2019-02-26T00:59:26.599Z,87.05
2019-02-26T01:01:54.855Z,86.64
2019-02-26T01:04:22.578Z,86.55
2019-02-26T01:06:49.937Z,85.58
2019-02-26T01:09:17.297Z,85.02
2019-02-26T01:11:47.160Z,84.54
2019-02-26T01:14:15.863Z,84.33
2019-02-26T01:16:44.193Z,84.22
2019-02-26T01:19:13.503Z,83.94
2019-02-26T01:21:41.240Z,85.28
2019-02-26T01:24:08.677Z,85.29
2019-02-26T01:26:36.057Z,85.17
2019-02-26T01:29:03.396Z,85.64
2019-02-26T01:31:32.079Z,86.63
2019-02-26T01:33:59.677Z,86.83
2019-02-26T01:36:27.048Z,86.48
2019-02-26T01:38:54.390Z,86.26
2019-02-26T01:41:23.247Z,86.07
2019-02-26T01:43:51.017Z,86.72
2019-02-26T01:46:18.851Z,86.25
2019-02-26T01:48:46.416Z,87.10
2019-02-26T01:51:13.737Z,86.68
2019-02-26T01:53:42.332Z,86.63
2019-02-26T01:56:10.138Z,86.19
2019-02-26T01:58:37.477Z,86.82
2019-02-26T02:01:04.857Z,86.32
2019-02-26T02:03:32.602Z,86.89
2019-02-26T02:06:00.317Z,86.86
2019-02-26T02:08:27.677Z,87.36
2019-02-26T02:10:58.866Z,87.39
2019-02-26T02:13:28.278Z,87.14
2019-02-26T02:15:53.557Z,85.99
2019-02-26T02:18:23.077Z,85.74
2019-02-26T02:20:50.137Z,85.46
2019-02-26T02:23:19.370Z,85.01
2019-02-26T02:25:46.811Z,85.00
2019-02-26T02:28:14.133Z,85.05
2019-02-26T02:30:41.489Z,86.01
2019-02-26T02:33:08.809Z,85.86
2019-02-26T02:35:36.184Z,85.60
2019-02-26T02:38:04.969Z,86.14
2019-02-26T02:40:32.482Z,85.80
2019-02-26T02:43:04.148Z,85.81
2019-02-26T02:45:29.056Z,85.66
2019-02-26T02:48:00.390Z,85.69
2019-02-26T02:50:25.679Z,85.80
2019-02-26T02:52:53.499Z,85.45
2019-02-26T02:55:21.972Z,85.82
2019-02-26T02:57:52.565Z,86.53
2019-02-26T03:00:20.645Z,85.34
2019-02-26T03:02:50.110Z,84.96
2019-02-26T03:05:17.020Z,85.36
2019-02-26T03:07:48.171Z,84.59
2019-02-26T03:10:14.723Z,85.23
2019-02-26T03:12:46.896Z,85.03
2019-02-26T03:15:11.840Z,84.68
2019-02-26T03:17:39.196Z,85.36
2019-02-26T03:20:09.509Z,85.40
2019-02-26T03:22:39.063Z,85.10
2019-02-26T03:25:07.518Z,85.56
2019-02-26T03:27:36.803Z,85.28
2019-02-26T03:30:05.499Z,85.92
2019-02-26T03:32:36.086Z,86.44
2019-02-26T03:35:07.036Z,86.60
2019-02-26T03:37:33.581Z,85.91
2019-02-26T03:40:02.852Z,86.44
2019-02-26T03:42:29.863Z,86.64
2019-02-26T03:44:59.580Z,86.54
2019-02-26T03:47:26.471Z,86.00
2019-02-26T03:49:53.844Z,85.85
2019-02-26T03:52:21.176Z,85.94
2019-02-26T03:54:50.560Z,86.54
2019-02-26T03:57:20.054Z,86.38
2019-02-26T03:59:46.998Z,85.69
2019-02-26T04:02:15.318Z,85.87
2019-02-26T04:04:48.548Z,86.33
2019-02-26T04:07:12.817Z,86.15
2019-02-26T04:09:44.116Z,85.71
2019-02-26T04:12:11.241Z,85.59
2019-02-26T04:14:38.702Z,85.63
2019-02-26T04:17:07.013Z,86.14
2019-02-26T04:19:34.730Z,86.21
2019-02-26T04:22:26.369Z,86.54
2019-02-26T04:24:55.044Z,86.33
2019-02-26T04:27:59.033Z,85.72
2019-02-26T04:31:28.839Z,85.71
2019-02-26T04:34:42.978Z,85.59
2019-02-26T04:37:48.471Z,85.11
2019-02-26T04:40:55.415Z,86.05
2019-02-26T04:44:22.635Z,86.12
2019-02-26T04:47:13.318Z,86.04
2019-02-26T04:49:42.898Z,86.22
2019-02-26T04:52:11.121Z,85.85
2019-02-26T04:54:39.712Z,86.59
2019-02-26T04:57:07.323Z,85.99
2019-02-26T04:59:36.015Z,85.58
2019-02-26T05:02:04.018Z,85.86
2019-02-26T05:04:34.007Z,85.86
2019-02-26T05:07:04.378Z,85.88
2019-02-26T05:09:32.553Z,85.76
2019-02-26T05:11:59.277Z,86.76
2019-02-26T05:14:26.678Z,86.18
2019-02-26T05:16:53.999Z,85.78
2019-02-26T05:19:22.361Z,86.61
2019-02-26T05:21:50.621Z,85.92
2019-02-26T05:24:21.268Z,85.87
2019-02-26T05:26:47.260Z,85.24
2019-02-26T05:29:14.615Z,86.06
2019-02-26T05:31:43.185Z,85.33
2019-02-26T05:34:12.440Z,85.33
2019-02-26T05:36:42.900Z,85.63
2019-02-26T05:39:09.257Z,85.50
2019-02-26T05:41:37.281Z,85.95
2019-02-26T05:44:07.529Z,85.86
2019-02-26T05:46:33.789Z,86.04
2019-02-26T05:49:03.535Z,85.57
2019-02-26T05:51:32.655Z,86.43
2019-02-26T05:54:02.119Z,86.40
2019-02-26T05:56:30.483Z,86.40
2019-02-26T05:59:02.051Z,85.51
2019-02-26T06:01:27.853Z,85.95
2019-02-26T06:03:55.332Z,86.34
2019-02-26T06:06:22.652Z,85.93
2019-02-26T06:08:50.018Z,85.80
2019-02-26T06:11:17.413Z,86.24
2019-02-26T06:13:44.789Z,86.22
2019-02-26T06:16:12.156Z,86.44
2019-02-26T06:18:41.933Z,86.07
2019-02-26T06:21:09.030Z,85.73
2019-02-26T06:23:37.320Z,85.64
2019-02-26T06:26:13.177Z,85.64
2019-02-26T06:28:38.428Z,85.69
2019-02-26T06:31:06.849Z,86.09
2019-02-26T06:33:36.191Z,85.58
2019-02-26T06:36:04.719Z,85.44
2019-02-26T06:38:33.288Z,85.44
2019-02-26T06:41:01.718Z,85.19
2019-02-26T06:43:30.868Z,85.95
2019-02-26T06:46:00.171Z,85.74
2019-02-26T06:48:29.799Z,84.89
2019-02-26T06:50:57.587Z,85.55
2019-02-26T06:53:25.677Z,85.52
2019-02-26T06:55:53.018Z,85.55
2019-02-26T06:58:25.239Z,86.10
2019-02-26T07:00:55.371Z,85.70
2019-02-26T07:03:24.151Z,84.64
2019-02-26T07:05:51.409Z,84.71
2019-02-26T07:08:20.840Z,84.35
2019-02-26T07:10:48.172Z,84.05
2019-02-26T07:13:15.577Z,83.83
2019-02-26T07:15:45.323Z,84.21
2019-02-26T07:18:16.830Z,83.81
2019-02-26T07:20:46.513Z,84.29
2019-02-26T07:23:12.791Z,83.86
2019-02-26T07:25:42.031Z,83.36
2019-02-26T07:28:09.340Z,84.05
2019-02-26T07:30:37.491Z,84.24
2019-02-26T07:33:07.563Z,83.69
2019-02-26T07:35:35.502Z,83.63
2019-02-26T07:38:04.191Z,83.48
2019-02-26T07:40:33.063Z,82.91
2019-02-26T07:43:04.896Z,82.69
2019-02-26T07:45:32.233Z,83.26
2019-02-26T07:48:00.992Z,83.01
2019-02-26T07:50:31.387Z,82.73
2019-02-26T07:52:59.460Z,82.64
2019-02-26T07:55:27.698Z,83.24
2019-02-26T07:57:55.453Z,82.73
2019-02-26T08:00:23.317Z,82.78
2019-02-26T08:02:52.059Z,81.94
2019-02-26T08:05:21.351Z,82.56
2019-02-26T08:07:51.934Z,82.75
2019-02-26T08:10:19.563Z,82.46
2019-02-26T08:12:47.041Z,82.07
2019-02-26T08:15:15.724Z,82.43
2019-02-26T08:17:47.791Z,81.54
2019-02-26T08:20:15.046Z,81.44
2019-02-26T08:22:42.558Z,82.49
2019-02-26T08:25:10.070Z,83.25
2019-02-26T08:27:37.882Z,82.75
2019-02-26T08:30:08.449Z,82.78
2019-02-26T08:32:35.790Z,81.94
2019-02-26T08:35:04.018Z,81.39
2019-02-26T08:37:31.357Z,81.35
2019-02-26T08:39:58.697Z,80.98
2019-02-26T08:42:26.057Z,80.80
2019-02-26T08:44:54.253Z,81.06
2019-02-26T08:47:23.492Z,81.03
2019-02-26T08:49:51.070Z,80.88
2019-02-26T08:52:21.505Z,81.97
2019-02-26T08:54:47.658Z,82.47
2019-02-26T08:57:15.032Z,82.22
2019-02-26T08:59:44.658Z,82.78
2019-02-26T09:02:11.623Z,82.14
2019-02-26T09:04:40.707Z,82.41
2019-02-26T09:07:08.257Z,81.70
2019-02-26T09:09:35.638Z,80.87
2019-02-26T09:12:03.330Z,80.15
2019-02-26T09:14:34.507Z,78.23
2019-02-26T09:17:01.932Z,77.77
2019-02-26T09:19:30.332Z,77.26
2019-02-26T09:21:58.478Z,76.61
2019-02-26T09:24:25.837Z,75.93
2019-02-26T09:26:54.833Z,77.19
2019-02-26T09:29:22.425Z,79.09
2019-02-26T09:31:49.816Z,78.33
2019-02-26T09:34:17.158Z,76.59
2019-02-26T09:36:45.828Z,74.61
2019-02-26T09:39:15.372Z,72.32
2019-02-26T09:41:45.430Z,71.39
2019-02-26T09:44:12.177Z,70.99
2019-02-26T09:46:42.111Z,70.61
2019-02-26T09:49:11.848Z,70.66
2019-02-26T09:51:40.027Z,70.57
2019-02-26T09:54:07.280Z,70.55
2019-02-26T09:56:34.649Z,70.35
2019-02-26T09:59:02.825Z,69.97
2019-02-26T10:01:33.124Z,72.67
2019-02-26T10:04:02.722Z,72.43
2019-02-26T10:06:29.797Z,71.70
2019-02-26T10:08:57.137Z,71.34
2019-02-26T10:11:26.122Z,70.14
2019-02-26T10:13:53.778Z,69.15
2019-02-26T10:16:23.399Z,68.54
2019-02-26T10:18:52.544Z,67.65
2019-02-26T10:21:20.554Z,67.94
2019-02-26T10:23:51.481Z,66.96
2019-02-26T10:26:17.354Z,68.33
2019-02-26T10:28:46.785Z,67.80
2019-02-26T10:31:14.011Z,67.49
2019-02-26T10:33:44.011Z,66.06
2019-02-26T10:36:13.038Z,64.65
2019-02-26T10:38:39.838Z,66.50
2019-02-26T10:41:07.173Z,66.79
2019-02-26T10:43:34.535Z,68.24
2019-02-26T10:46:01.849Z,69.34
2019-02-26T10:48:29.177Z,69.13
2019-02-26T10:50:56.589Z,68.23
2019-02-26T10:53:23.985Z,66.54
2019-02-26T10:55:51.392Z,66.12
2019-02-26T10:58:19.842Z,64.90
2019-02-26T11:00:50.597Z,64.19
2019-02-26T11:03:20.232Z,64.86
2019-02-26T11:05:48.661Z,63.20
2019-02-26T11:08:16.861Z,62.64
2019-02-26T11:10:44.962Z,63.07
2019-02-26T11:13:17.177Z,63.24
2019-02-26T11:15:42.718Z,63.49
2019-02-26T11:18:11.637Z,62.71
2019-02-26T11:20:39.319Z,62.54
2019-02-26T11:23:08.958Z,62.93
2019-02-26T11:25:37.020Z,63.53
2019-02-26T11:28:05.633Z,62.51
2019-02-26T11:30:33.817Z,63.69
2019-02-26T11:33:04.764Z,63.73
2019-02-26T11:35:30.485Z,64.03
2019-02-26T11:37:58.243Z,63.14
2019-02-26T11:40:29.666Z,58.87
2019-02-26T11:42:55.128Z,56.46
2019-02-26T11:45:24.121Z,58.69
2019-02-26T11:47:51.465Z,60.65
2019-02-26T11:50:19.118Z,60.89
2019-02-26T11:52:46.518Z,61.09
2019-02-26T11:55:14.357Z,60.99
2019-02-26T11:57:43.185Z,62.10
2019-02-26T12:00:24.348Z,61.88
2019-02-26T12:02:44.511Z,61.17
2019-02-26T12:05:12.103Z,61.00
2019-02-26T12:07:39.406Z,61.00
2019-02-26T12:10:11.687Z,60.47
2019-02-26T12:12:37.158Z,61.03
2019-02-26T12:15:07.306Z,56.13
2019-02-26T12:17:37.689Z,62.85
2019-02-26T12:20:06.199Z,64.34
2019-02-26T12:22:33.573Z,63.61
2019-02-26T12:25:02.718Z,62.94
2019-02-26T12:27:30.167Z,61.06
2019-02-26T12:29:57.487Z,61.42
2019-02-26T12:32:26.892Z,60.56
2019-02-26T12:34:54.001Z,59.73
2019-02-26T12:37:21.346Z,62.10
2019-02-26T12:39:49.962Z,62.62
2019-02-26T12:42:18.709Z,61.14
2019-02-26T12:44:46.731Z,60.83
2019-02-26T12:47:15.429Z,59.00
2019-02-26T12:49:45.124Z,59.67
2019-02-26T12:52:14.966Z,57.78
2019-02-26T12:54:42.826Z,61.63
2019-02-26T12:57:10.458Z,61.40
2019-02-26T12:59:37.895Z,61.34
2019-02-26T13:02:09.124Z,62.00
2019-02-26T13:04:37.485Z,62.94
2019-02-26T13:07:05.419Z,61.34
2019-02-26T13:09:33.567Z,61.60
2019-02-26T13:12:02.864Z,62.10
2019-02-26T13:14:30.224Z,61.15
2019-02-26T13:17:00.044Z,62.38
2019-02-26T13:19:32.676Z,61.86
2019-02-26T13:22:04.892Z,60.70
2019-02-26T13:24:26.487Z,60.85
2019-02-26T13:26:59.165Z,59.98
2019-02-26T13:29:23.654Z,59.03
2019-02-26T13:31:56.481Z,57.84
2019-02-26T13:34:20.245Z,58.06
2019-02-26T13:36:52.745Z,55.00
2019-02-26T13:39:21.826Z,55.72
2019-02-26T13:41:46.138Z,53.62
2019-02-26T13:44:13.614Z,54.59
2019-02-26T13:46:40.983Z,53.61
2019-02-26T13:49:08.378Z,54.57
2019-02-26T13:51:35.757Z,53.72
2019-02-26T13:54:03.146Z,53.58
2019-02-26T13:56:30.562Z,53.79
2019-02-26T13:58:57.898Z,53.01
2019-02-26T14:01:25.257Z,54.76
2019-02-26T14:03:52.698Z,56.57
2019-02-26T14:06:19.999Z,58.07
2019-02-26T14:08:47.339Z,58.58
2019-02-26T14:11:14.677Z,57.63
2019-02-26T14:13:41.986Z,54.68
2019-02-26T14:16:09.696Z,53.33
2019-02-26T14:18:37.110Z,49.25
2019-02-26T14:21:04.591Z,50.60
2019-02-26T14:23:34.941Z,52.70
2019-02-26T14:26:01.104Z,53.85
2019-02-26T14:28:28.497Z,53.55
2019-02-26T14:30:55.846Z,51.88
2019-02-26T14:33:23.178Z,52.93
2019-02-26T14:35:50.618Z,52.85
2019-02-26T14:38:17.966Z,53.31
2019-02-26T14:40:45.305Z,55.63
2019-02-26T14:43:12.631Z,55.15
2019-02-26T14:45:39.971Z,57.19
2019-02-26T14:48:07.574Z,58.66
2019-02-26T14:50:34.905Z,59.36
2019-02-26T14:53:03.179Z,57.86
2019-02-26T14:55:30.531Z,57.61
2019-02-26T14:57:57.839Z,57.94
2019-02-26T15:00:26.335Z,56.30
2019-02-26T15:02:53.629Z,55.35
2019-02-26T15:05:20.959Z,55.60
2019-02-26T15:07:48.342Z,54.53
2019-02-26T15:10:15.779Z,52.10
2019-02-26T15:12:43.128Z,55.00
2019-02-26T15:15:10.759Z,56.25
2019-02-26T15:17:38.139Z,54.10
2019-02-26T15:20:07.549Z,55.46
2019-02-26T15:22:34.887Z,58.12
2019-02-26T15:25:02.291Z,55.62
2019-02-26T15:27:36.939Z,55.33
2019-02-26T15:29:59.682Z,57.30
2019-02-26T15:32:27.109Z,59.21
2019-02-26T15:34:54.454Z,57.26
2019-02-26T15:37:21.882Z,56.00
2019-02-26T15:39:50.814Z,58.72
2019-02-26T15:42:19.108Z,55.47
2019-02-26T15:44:47.664Z,55.18
2019-02-26T15:47:15.033Z,56.99
2019-02-26T15:49:42.334Z,57.75
2019-02-26T15:52:09.674Z,57.65
2019-02-26T15:54:37.073Z,57.48
2019-02-26T15:57:04.515Z,58.22
2019-02-26T15:59:35.635Z,55.72
2019-02-26T16:02:03.008Z,54.85
2019-02-26T16:04:30.369Z,57.59
2019-02-26T16:06:57.921Z,56.49
2019-02-26T16:09:25.272Z,55.26
2019-02-26T16:11:52.732Z,55.43
2019-02-26T16:14:20.159Z,55.01
2019-02-26T16:16:47.514Z,53.54
2019-02-26T16:19:15.111Z,58.15
2019-02-26T16:21:42.578Z,55.81
2019-02-26T16:24:09.989Z,55.57
2019-02-26T16:26:38.428Z,56.13
2019-02-26T16:29:06.832Z,55.48
2019-02-26T16:31:34.460Z,54.40
2019-02-26T16:34:02.195Z,54.37
2019-02-26T16:36:31.590Z,54.57
2019-02-26T16:38:59.256Z,55.32
2019-02-26T16:41:26.639Z,54.50
2019-02-26T16:43:54.492Z,56.32
2019-02-26T16:46:21.954Z,56.05
2019-02-26T16:48:53.124Z,56.70
2019-02-26T16:51:21.673Z,56.35
2019-02-26T16:53:49.564Z,56.63
2019-02-26T16:56:17.205Z,55.67
2019-02-26T16:58:44.865Z,57.26
2019-02-26T17:01:12.925Z,57.81
2019-02-26T17:03:40.490Z,59.31
2019-02-26T17:06:08.093Z,59.14
2019-02-26T17:08:35.877Z,58.25
2019-02-26T17:11:04.147Z,60.57
2019-02-26T17:13:32.099Z,61.78
2019-02-26T17:16:00.225Z,64.80
2019-02-26T17:18:28.151Z,64.00
2019-02-26T17:20:56.940Z,64.65
2019-02-26T17:23:26.465Z,65.78
2019-02-26T17:25:54.177Z,66.34
2019-02-26T17:28:22.133Z,64.78
2019-02-26T17:30:49.991Z,62.19
2019-02-26T17:33:17.977Z,64.85
2019-02-26T17:35:45.911Z,62.80
2019-02-26T17:38:15.527Z,63.97
2019-02-26T17:40:43.503Z,64.25
2019-02-26T17:43:11.306Z,65.25
2019-02-26T17:45:38.997Z,64.19
2019-02-26T17:48:06.909Z,65.79
2019-02-26T17:50:35.166Z,64.96
2019-02-26T17:53:03.095Z,65.15
2019-02-26T17:55:31.051Z,64.28
2019-02-26T17:58:00.690Z,64.93
2019-02-26T18:00:30.635Z,63.94
2019-02-26T18:02:58.638Z,63.33
2019-02-26T18:05:26.451Z,65.26
2019-02-26T18:07:54.152Z,67.75
2019-02-26T18:10:22.160Z,65.40
2019-02-26T18:12:50.085Z,66.10
2019-02-26T18:15:18.572Z,67.55
2019-02-26T18:17:46.502Z,66.66
2019-02-26T18:20:16.234Z,66.50
2019-02-26T18:22:44.151Z,67.88
2019-02-26T18:25:12.718Z,68.74
2019-02-26T18:27:40.533Z,68.54
2019-02-26T18:30:11.591Z,68.33
2019-02-26T18:32:39.537Z,69.35
2019-02-26T18:35:07.553Z,69.16
2019-02-26T18:37:35.482Z,69.38
2019-02-26T18:40:05.214Z,70.03
2019-02-26T18:42:34.584Z,69.55
2019-02-26T18:45:02.478Z,70.86
2019-02-26T18:47:31.558Z,71.92
2019-02-26T18:49:59.339Z,72.31
2019-02-26T18:52:27.156Z,71.06
2019-02-26T18:54:55.153Z,71.94
2019-02-26T18:57:24.787Z,72.31
2019-02-26T18:59:53.596Z,72.11
2019-02-26T19:02:24.245Z,72.15
2019-02-26T19:04:52.097Z,72.63
2019-02-26T19:07:19.891Z,72.00
2019-02-26T19:09:47.643Z,72.88
2019-02-26T19:12:15.445Z,72.84
2019-02-26T19:14:43.739Z,73.03
2019-02-26T19:17:11.631Z,73.40
2019-02-26T19:19:39.707Z,71.88
2019-02-26T19:22:09.089Z,70.67
2019-02-26T19:24:36.862Z,72.96
2019-02-26T19:27:04.720Z,73.41
2019-02-26T19:29:35.221Z,72.87
2019-02-26T19:32:03.069Z,71.51
2019-02-26T19:34:30.908Z,72.39
2019-02-26T19:36:59.275Z,71.18
2019-02-26T19:39:28.827Z,72.11
2019-02-26T19:41:56.718Z,71.69
2019-02-26T19:44:24.745Z,72.52
2019-02-26T19:46:52.689Z,72.88
2019-02-26T19:49:20.712Z,72.78
2019-02-26T19:51:50.174Z,73.20
2019-02-26T19:54:18.116Z,74.65
2019-02-26T19:56:46.128Z,75.59
2019-02-26T19:59:14.297Z,75.34
2019-02-26T20:01:42.355Z,74.80
2019-02-26T20:04:12.367Z,74.68
2019-02-26T20:06:41.373Z,75.18
2019-02-26T20:09:09.412Z,75.60
2019-02-26T20:11:37.244Z,74.94
2019-02-26T20:14:05.118Z,74.65
2019-02-26T20:16:32.856Z,74.64
2019-02-26T20:19:00.817Z,75.60
2019-02-26T20:21:29.808Z,75.25
2019-02-26T20:23:57.647Z,76.59
2019-02-26T20:26:25.563Z,76.53
2019-02-26T20:28:53.527Z,75.85
2019-02-26T20:31:21.922Z,75.73
2019-02-26T20:33:50.478Z,75.62
2019-02-26T20:36:18.545Z,75.87
2019-02-26T20:38:46.777Z,76.36
2019-02-26T20:41:14.768Z,74.86
2019-02-26T20:43:42.547Z,73.99
2019-02-26T20:46:10.359Z,73.34
2019-02-26T20:48:38.605Z,75.36
2019-02-26T20:51:06.313Z,75.96
2019-02-26T20:53:38.567Z,77.10
2019-02-26T20:56:04.049Z,77.28
2019-02-26T20:58:32.038Z,76.94
2019-02-26T21:00:59.948Z,76.42
2019-02-26T21:03:27.582Z,76.44
2019-02-26T21:05:55.448Z,75.72
2019-02-26T21:08:23.237Z,74.27
2019-02-26T21:10:51.014Z,74.92
2019-02-26T21:13:18.677Z,75.36
2019-02-26T21:15:48.052Z,75.55
2019-02-26T21:18:16.219Z,75.77
2019-02-26T21:20:44.132Z,75.67
2019-02-26T21:23:11.798Z,74.03
2019-02-26T21:25:43.914Z,72.35
2019-02-26T21:28:09.221Z,73.20
2019-02-26T21:30:36.909Z,74.10
2019-02-26T21:33:04.534Z,75.37
2019-02-26T21:35:32.101Z,75.54
2019-02-26T21:37:59.901Z,76.04
2019-02-26T21:40:27.514Z,76.02
2019-02-26T21:42:55.041Z,76.08
2019-02-26T21:45:23.277Z,76.79
2019-02-26T21:47:50.823Z,76.99
2019-02-26T21:50:22.134Z,78.01
2019-02-26T21:52:58.992Z,75.66
2019-02-26T21:55:16.913Z,76.68
2019-02-26T21:57:44.312Z,76.74
2019-02-26T22:00:13.741Z,76.83
2019-02-26T22:02:41.121Z,76.19
2019-02-26T22:05:08.677Z,76.09
2019-02-26T22:07:36.069Z,77.22
2019-02-26T22:10:07.027Z,77.70
2019-02-26T22:12:33.081Z,77.94
2019-02-26T22:15:00.462Z,77.07
2019-02-26T22:17:27.810Z,77.10
2019-02-26T22:19:55.150Z,76.93
2019-02-26T22:22:25.996Z,77.18
2019-02-26T22:24:52.155Z,76.78
2019-02-26T22:27:19.523Z,77.09
2019-02-26T22:29:48.108Z,77.18
2019-02-26T22:32:16.150Z,77.35
2019-02-26T22:34:43.484Z,77.91
2019-02-26T22:37:10.798Z,77.84
2019-02-26T22:39:38.182Z,77.81
2019-02-26T22:42:07.861Z,77.87
2019-02-26T22:44:34.801Z,76.85
2019-02-26T22:47:04.690Z,76.82
2019-02-26T22:49:31.897Z,77.75
2019-02-26T22:51:59.242Z,77.25
2019-02-26T22:54:26.574Z,76.96
2019-02-26T22:56:56.662Z,77.40
2019-02-26T22:59:23.221Z,77.03
2019-02-26T23:01:51.141Z,76.56
2019-02-26T23:04:19.773Z,77.63
2019-02-26T23:06:47.761Z,77.23
2019-02-26T23:09:18.939Z,76.57
2019-02-26T23:11:46.700Z,77.86
2019-02-26T23:14:14.401Z,77.86
2019-02-26T23:16:42.135Z,78.02
2019-02-26T23:19:09.641Z,77.80
2019-02-26T23:21:37.038Z,77.45
2019-02-26T23:24:04.973Z,78.36
2019-02-26T23:26:33.369Z,78.77
2019-02-26T23:29:00.721Z,78.03
2019-02-26T23:31:28.078Z,76.95
2019-02-26T23:33:55.437Z,77.91
2019-02-26T23:36:22.803Z,78.79
2019-02-26T23:38:50.184Z,78.62
2019-02-26T23:41:17.456Z,78.66
2019-02-26T23:43:45.468Z,78.31
2019-02-26T23:46:13.323Z,77.84
2019-02-26T23:48:41.385Z,77.84
2019-02-26T23:51:09.000Z,78.24
2019-02-26T23:53:36.295Z,78.01
2019-02-26T23:56:03.581Z,78.14
2019-02-26T23:58:31.601Z,78.59
